»·PEaware :: BOE561 KPHX-KLAX

BOE561 :: KPHX-KLAX

FLIGHT INFORMATION

Flight Status: Arrived
Operator:
Boeing Commercial Airplane Group
More flights by this operator :: More flights under this callsign
Pilot: Ben F. (2808)
Aircraft: BOEING 737-200
(B732)
More flights by this aircraft type
Origin: KPHX Phoenix Sky Harbor Intl
United States
Destination: KLAX Los Angeles Intl
United States
More flights between these airports :: More routes between these airports
Route: +BXK4 PKE TNP BASET5
File this flight plan on PilotEdge
Remarks:
Altitude:
(Current/Filed)
32,000ft
Speed:
(Current/Filed)
433kts
Departed: 06-Dec-18 08:45 AM
Arrived: 06-Dec-18 10:01 AM
Distance/Time
Traveled:
320nm/1:15
Distance/Time
To Go:
Arrived

Flight Plot

Page will automatically refresh every two minutes.

Flight plan parsing failed; only flown route is shown


Map Options




Map Legend


Flown Route
Filed Route
Departure Airport
Arrival Airport
Navaid (VOR, NDB)
Fix

Horizontal Profiles

Position Reports

Time Latitude Longitude Heading Altitude Ground
Speed
06-Dec-18 08:30 33.425339 -112.020556 270 1143ft 0kts
06-Dec-18 08:31 33.425339 -112.020556 270 1143ft 0kts
06-Dec-18 08:32 33.425339 -112.020556 270 1143ft 0kts
06-Dec-18 08:33 33.425339 -112.020556 270 1143ft 0kts
06-Dec-18 08:34 33.425339 -112.020556 270 1143ft 0kts
06-Dec-18 08:35 33.425339 -112.020556 270 1143ft 0kts
06-Dec-18 08:36 33.425339 -112.020556 270 1143ft 0kts
06-Dec-18 08:37 33.425339 -112.020556 269 1143ft 0kts
06-Dec-18 08:38 33.425339 -112.020556 270 1143ft 0kts
06-Dec-18 08:39 33.425339 -112.020556 270 1143ft 0kts
06-Dec-18 08:40 33.425374 -112.020728 296 1143ft 1kts
06-Dec-18 08:41 33.427412 -112.021132 355 1143ft 9kts
06-Dec-18 08:42 33.427752 -112.025763 269 1143ft 16kts
06-Dec-18 08:43 33.429762 -112.026962 359 1143ft 19kts
06-Dec-18 08:44 33.431058 -112.021262 90 1143ft 92kts
06-Dec-18 08:45 33.432549 -111.966354 86 2611ft 210kts
06-Dec-18 08:46 33.438065 -111.885150 88 5276ft 264kts
06-Dec-18 08:47 33.393932 -111.819543 177 8163ft 292kts
06-Dec-18 08:48 33.341589 -111.873602 266 11170ft 276kts
06-Dec-18 08:49 33.346040 -111.968544 280 13222ft 304kts
06-Dec-18 08:50 33.361093 -112.069605 277 15228ft 320kts
06-Dec-18 08:51 33.374065 -112.174650 276 17295ft 324kts
06-Dec-18 08:52 33.387235 -112.281318 276 19053ft 329kts
06-Dec-18 08:53 33.400553 -112.389955 275 20570ft 334kts
06-Dec-18 08:54 33.413749 -112.498569 275 21919ft 339kts
06-Dec-18 08:55 33.427258 -112.610675 275 23111ft 344kts
06-Dec-18 08:56 33.440545 -112.721847 274 24174ft 348kts
06-Dec-18 08:57 33.457824 -112.834959 285 25060ft 360kts
06-Dec-18 08:58 33.496529 -112.946904 285 25593ft 374kts
06-Dec-18 08:59 33.537871 -113.063240 285 26071ft 386kts
06-Dec-18 09:00 33.579786 -113.181131 285 26790ft 389kts
06-Dec-18 09:01 33.622121 -113.300587 285 27390ft 393kts
06-Dec-18 09:02 33.664622 -113.420954 285 27918ft 396kts
06-Dec-18 09:03 33.707372 -113.542467 285 28430ft 397kts
06-Dec-18 09:04 33.748991 -113.661207 284 28980ft 396kts
06-Dec-18 09:05 33.790763 -113.780828 284 29500ft 396kts
06-Dec-18 09:06 33.832861 -113.901860 284 29918ft 397kts
06-Dec-18 09:07 33.875330 -114.024466 284 30116ft 403kts
06-Dec-18 09:08 33.918505 -114.149527 284 30102ft 410kts
06-Dec-18 09:09 33.961613 -114.276450 283 30090ft 415kts
06-Dec-18 09:11 34.003314 -114.405452 283 30103ft 418kts
06-Dec-18 09:12 34.044767 -114.535313 283 30109ft 418kts
06-Dec-18 09:13 34.084783 -114.662268 285 30094ft 421kts
06-Dec-18 09:14 34.131308 -114.772982 288 30085ft 425kts
06-Dec-18 09:15 34.184763 -114.897163 289 30093ft 425kts
06-Dec-18 09:16 34.214967 -115.026356 261 30102ft 396kts
06-Dec-18 09:17 34.185980 -115.150857 246 30100ft 387kts
06-Dec-18 09:18 34.137669 -115.265786 239 30097ft 387kts
06-Dec-18 09:19 34.089083 -115.379578 253 30106ft 393kts
06-Dec-18 09:20 34.074813 -115.508921 255 30146ft 393kts
06-Dec-18 09:21 34.072847 -115.641490 268 28429ft 391kts
06-Dec-18 09:22 34.076979 -115.762460 257 26440ft 375kts
06-Dec-18 09:23 34.060776 -115.882378 256 24387ft 365kts
06-Dec-18 09:24 34.043010 -116.004083 255 24148ft 378kts
06-Dec-18 09:25 34.024834 -116.126688 256 24136ft 410kts
06-Dec-18 09:26 34.005007 -116.259900 256 22249ft 398kts
06-Dec-18 09:27 33.986025 -116.386161 256 20113ft 383kts
06-Dec-18 09:28 33.971767 -116.510689 260 17995ft 374kts
06-Dec-18 09:29 33.960846 -116.629925 260 17072ft 336kts
06-Dec-18 09:30 33.951754 -116.731034 260 17094ft 356kts
06-Dec-18 09:31 33.942688 -116.846030 260 17089ft 362kts
06-Dec-18 09:31 33.934847 -116.944587 260 17067ft 366kts
06-Dec-18 09:33 33.923366 -117.086891 260 17003ft 371kts
06-Dec-18 09:33 33.913524 -117.189051 259 16980ft 374kts
06-Dec-18 09:34 33.902891 -117.312420 260 16979ft 376kts
06-Dec-18 09:36 33.891555 -117.446780 260 15600ft 357kts
06-Dec-18 09:36 33.883608 -117.539825 261 14250ft 332kts
06-Dec-18 09:37 33.907505 -117.641895 284 12978ft 313kts
06-Dec-18 09:38 33.940730 -117.731323 294 12980ft 326kts
06-Dec-18 09:39 33.974102 -117.831637 261 12960ft 324kts
06-Dec-18 09:40 33.958587 -117.930118 255 11361ft 295kts
06-Dec-18 09:41 33.949951 -118.018547 263 9127ft 278kts
06-Dec-18 09:42 33.946295 -118.105049 263 8802ft 248kts
06-Dec-18 09:43 33.944309 -118.191931 268 8965ft 266kts
06-Dec-18 09:44 33.945279 -118.276207 256 8962ft 245kts
06-Dec-18 09:45 33.903938 -118.334770 225 8976ft 229kts
06-Dec-18 09:46 33.872733 -118.398396 260 8977ft 237kts
06-Dec-18 09:47 33.862875 -118.479940 261 8840ft 254kts
06-Dec-18 09:48 33.851376 -118.564782 259 7124ft 259kts
06-Dec-18 09:49 33.841095 -118.649750 261 5849ft 251kts
06-Dec-18 09:50 33.831068 -118.729824 260 4338ft 255kts
06-Dec-18 09:51 33.841161 -118.803735 336 3993ft 240kts
06-Dec-18 09:52 33.893789 -118.782472 67 3957ft 198kts
06-Dec-18 09:53 33.902609 -118.717762 81 3980ft 200kts
06-Dec-18 09:54 33.909533 -118.653456 81 3984ft 170kts
06-Dec-18 09:55 33.915068 -118.600229 79 3135ft 150kts
06-Dec-18 09:56 33.920108 -118.552213 80 2346ft 141kts
06-Dec-18 09:57 33.924775 -118.506607 80 1605ft 138kts
06-Dec-18 09:58 33.929455 -118.460420 81 855ft 141kts
06-Dec-18 09:59 33.934068 -118.414656 80 151ft 134kts
06-Dec-18 10:00 33.935906 -118.393784 152 136ft 11kts
06-Dec-18 10:01 33.933790 -118.394612 270 136ft 3kts

Navigation Log

Ident Type
Flight plan parsing failed, navigation log unavailable